createdAt,value
2019-02-08T00:00:25.540Z,15.60
2019-02-08T00:03:02.318Z,17.83
2019-02-08T00:05:36.043Z,16.37
2019-02-08T00:08:17.484Z,15.13
2019-02-08T00:10:53.268Z,11.80
2019-02-08T00:13:27.039Z,15.00
2019-02-08T00:16:05.590Z,15.13
2019-02-08T00:18:41.266Z,13.07
2019-02-08T00:21:15.234Z,18.00
2019-02-08T00:23:48.889Z,15.30
2019-02-08T00:26:29.762Z,15.27
2019-02-08T00:29:03.412Z,12.97
2019-02-08T00:31:37.173Z,17.20
2019-02-08T00:34:10.898Z,12.23
2019-02-08T00:36:44.679Z,15.53
2019-02-08T00:39:18.333Z,18.03
2019-02-08T00:41:52.386Z,15.70
2019-02-08T00:44:26.060Z,12.87
2019-02-08T00:47:06.040Z,13.10
2019-02-08T00:49:51.855Z,11.83
2019-02-08T00:52:25.608Z,11.67
2019-02-08T00:54:59.267Z,12.23
2019-02-08T00:57:41.277Z,11.47
2019-02-08T01:00:16.806Z,12.53
2019-02-08T01:02:54.822Z,9.37
2019-02-08T01:05:29.735Z,8.20
2019-02-08T01:08:03.627Z,12.87
2019-02-08T01:10:37.384Z,15.60
2019-02-08T01:13:18.456Z,9.03
2019-02-08T01:15:52.230Z,9.83
2019-02-08T01:18:26.269Z,21.97
2019-02-08T01:21:06.209Z,12.37
2019-02-08T01:23:41.806Z,8.40
2019-02-08T01:26:15.365Z,10.57
2019-02-08T01:28:49.134Z,12.37
2019-02-08T01:31:22.872Z,14.10
2019-02-08T01:33:56.635Z,10.23
2019-02-08T01:36:30.400Z,12.23
2019-02-08T01:39:06.637Z,13.80
2019-02-08T01:41:40.335Z,9.53
2019-02-08T01:44:14.081Z,12.13
2019-02-08T01:46:47.720Z,10.43
2019-02-08T01:49:21.453Z,7.67
2019-02-08T01:51:58.704Z,4.97
2019-02-08T01:54:32.360Z,8.43
2019-02-08T01:57:06.136Z,6.93
2019-02-08T01:59:39.811Z,8.07
2019-02-08T02:02:13.577Z,7.53
2019-02-08T02:04:50.685Z,8.23
2019-02-08T02:07:39.449Z,9.03
2019-02-08T02:10:18.965Z,6.70
2019-02-08T02:12:52.730Z,7.10
2019-02-08T02:15:35.776Z,8.27
2019-02-08T02:18:17.488Z,11.83
2019-02-08T02:20:51.466Z,9.63
2019-02-08T02:23:28.126Z,8.23
2019-02-08T02:26:05.200Z,9.17
2019-02-08T02:28:42.560Z,6.40
2019-02-08T02:31:16.285Z,9.73
2019-02-08T02:33:50.037Z,9.50
2019-02-08T02:36:23.794Z,7.40
2019-02-08T02:38:57.420Z,8.10
2019-02-08T02:41:31.110Z,6.93
2019-02-08T02:44:07.984Z,6.90
2019-02-08T02:46:41.746Z,12.57
2019-02-08T02:49:24.652Z,7.23
2019-02-08T02:51:58.334Z,7.23
2019-02-08T02:54:32.000Z,9.20
2019-02-08T02:57:05.757Z,7.50
2019-02-08T02:59:42.441Z,6.10
2019-02-08T03:02:28.731Z,5.60
2019-02-08T03:05:07.067Z,5.10
2019-02-08T03:07:40.819Z,7.43
2019-02-08T03:10:17.525Z,12.20
2019-02-08T03:12:51.562Z,8.43
2019-02-08T03:15:26.919Z,8.50
2019-02-08T03:18:00.612Z,5.70
2019-02-08T03:20:34.478Z,9.67
2019-02-08T03:23:08.227Z,9.67
2019-02-08T03:25:41.972Z,6.03
2019-02-08T03:28:15.737Z,11.17
2019-02-08T03:30:51.052Z,8.93
2019-02-08T03:33:36.824Z,9.90
2019-02-08T03:36:10.415Z,7.03
2019-02-08T03:38:53.287Z,5.47
2019-02-08T03:41:27.018Z,7.90
2019-02-08T03:44:07.043Z,8.73
2019-02-08T03:46:40.792Z,9.50
2019-02-08T03:49:14.540Z,10.17
2019-02-08T03:51:48.211Z,10.73
2019-02-08T03:54:21.992Z,6.73
2019-02-08T03:56:58.863Z,8.30
2019-02-08T03:59:32.623Z,9.03
2019-02-08T04:02:06.375Z,7.90
2019-02-08T04:04:47.692Z,13.37
2019-02-08T04:07:21.460Z,8.43
2019-02-08T04:09:58.222Z,8.13
2019-02-08T04:12:32.576Z,10.23
2019-02-08T04:15:09.315Z,12.57
2019-02-08T04:17:43.331Z,10.20
2019-02-08T04:20:22.894Z,10.50
2019-02-08T04:23:08.992Z,12.00
2019-02-08T04:25:42.777Z,12.40
2019-02-08T04:28:16.540Z,14.47
2019-02-08T04:30:50.459Z,11.03
2019-02-08T04:33:24.138Z,10.47
2019-02-08T04:35:57.726Z,12.27
2019-02-08T04:38:31.396Z,9.83
2019-02-08T04:41:06.973Z,13.13
2019-02-08T04:43:40.662Z,13.80
2019-02-08T04:46:19.614Z,11.83
2019-02-08T04:48:59.426Z,14.73
2019-02-08T04:51:42.478Z,18.10
2019-02-08T04:54:19.794Z,16.57
2019-02-08T04:56:53.447Z,10.83
2019-02-08T04:59:30.228Z,13.10
2019-02-08T05:02:04.341Z,16.50
2019-02-08T05:04:41.133Z,15.73
2019-02-08T05:07:14.780Z,15.43
2019-02-08T05:09:48.470Z,11.40
2019-02-08T05:12:26.502Z,18.37
2019-02-08T05:15:00.278Z,20.37
2019-02-08T05:17:33.950Z,20.70
2019-02-08T05:20:22.856Z,16.80
2019-02-08T05:22:56.874Z,18.40
2019-02-08T05:25:30.637Z,14.40
2019-02-08T05:28:06.681Z,21.13
2019-02-08T05:30:40.347Z,21.07
2019-02-08T05:33:14.022Z,19.17
2019-02-08T05:35:53.850Z,20.80
2019-02-08T05:38:27.603Z,21.57
2019-02-08T05:41:01.330Z,17.53
2019-02-08T05:43:35.294Z,23.10
2019-02-08T05:46:09.039Z,20.63
2019-02-08T05:48:42.664Z,17.97
2019-02-08T05:51:31.083Z,23.17
2019-02-08T05:54:09.161Z,29.20
2019-02-08T05:56:43.300Z,22.23
2019-02-08T05:59:17.083Z,22.70
2019-02-08T06:01:50.666Z,20.20
2019-02-08T06:04:28.464Z,19.90
2019-02-08T06:07:02.117Z,21.00
2019-02-08T06:09:35.883Z,21.17
2019-02-08T06:12:10.572Z,25.87
2019-02-08T06:14:44.256Z,20.27
2019-02-08T06:17:17.918Z,17.97
2019-02-08T06:20:09.250Z,16.80
2019-02-08T06:22:42.972Z,27.27
2019-02-08T06:25:20.524Z,23.77
2019-02-08T06:27:54.219Z,21.73
2019-02-08T06:30:31.632Z,21.17
2019-02-08T06:33:09.135Z,21.07
2019-02-08T06:35:42.897Z,19.30
2019-02-08T06:38:17.803Z,21.83
2019-02-08T06:40:51.803Z,18.03
2019-02-08T06:43:25.421Z,19.87
2019-02-08T06:45:59.232Z,20.63
2019-02-08T06:48:32.963Z,25.23
2019-02-08T06:51:12.614Z,17.53
2019-02-08T06:53:46.406Z,23.80
2019-02-08T06:56:43.829Z,20.67
2019-02-08T06:59:19.543Z,26.07
2019-02-08T07:02:07.505Z,22.90
2019-02-08T07:04:48.777Z,21.60
2019-02-08T07:07:27.145Z,22.63
2019-02-08T07:13:14.671Z,23.57
2019-02-08T07:15:52.893Z,22.57
2019-02-08T07:18:28.236Z,18.97
2019-02-08T07:21:06.979Z,24.73
2019-02-08T07:23:42.400Z,18.13
2019-02-08T07:26:18.076Z,22.00
2019-02-08T07:28:53.824Z,20.80
2019-02-08T07:31:52.984Z,17.87
2019-02-08T07:34:28.400Z,21.47
2019-02-08T07:37:07.062Z,24.80
2019-02-08T07:40:10.200Z,18.97
2019-02-08T07:42:55.293Z,18.23
2019-02-08T07:45:34.963Z,18.37
2019-02-08T07:48:10.379Z,18.37
2019-02-08T07:51:04.076Z,23.97
2019-02-08T07:53:45.068Z,17.37
2019-02-08T07:56:22.151Z,20.13
2019-02-08T07:58:57.564Z,20.67
2019-02-08T08:01:38.856Z,21.23
2019-02-08T08:04:17.832Z,20.77
2019-02-08T08:06:53.139Z,18.23
2019-02-08T08:09:43.748Z,18.87
2019-02-08T08:12:23.002Z,14.57
2019-02-08T08:15:04.714Z,15.23
2019-02-08T08:17:46.412Z,13.27
2019-02-08T08:20:39.999Z,18.43
2019-02-08T08:23:34.102Z,14.63
2019-02-08T08:26:16.295Z,18.00
2019-02-08T08:29:04.060Z,12.97
2019-02-08T08:32:00.738Z,11.30
2019-02-08T08:34:49.226Z,11.20
2019-02-08T08:37:31.708Z,16.90
2019-02-08T08:40:26.853Z,13.63
2019-02-08T08:43:15.739Z,12.63
2019-02-08T08:46:04.592Z,15.50
2019-02-08T08:49:02.747Z,11.60
2019-02-08T08:51:55.916Z,14.43
2019-02-08T08:54:44.415Z,13.73
2019-02-08T08:57:46.596Z,10.33
2019-02-08T09:00:35.691Z,12.57
2019-02-08T09:03:32.127Z,17.60
2019-02-08T09:06:37.325Z,13.43
2019-02-08T09:09:43.619Z,15.40
2019-02-08T09:12:22.895Z,8.97
2019-02-08T09:15:28.189Z,11.70
2019-02-08T09:18:29.447Z,16.00
2019-02-08T09:21:08.822Z,13.60
2019-02-08T09:24:03.579Z,15.87
2019-02-08T09:26:51.944Z,8.93
2019-02-08T09:29:53.337Z,6.40
2019-02-08T09:32:48.027Z,8.70
2019-02-08T09:35:39.011Z,7.07
2019-02-08T09:38:41.111Z,7.60
2019-02-08T09:41:41.787Z,8.27
2019-02-08T09:44:56.411Z,5.30
2019-02-08T09:47:36.127Z,7.90
2019-02-08T09:50:39.918Z,9.33
2019-02-08T09:53:26.079Z,8.20
2019-02-08T09:56:19.069Z,10.47
2019-02-08T09:59:27.462Z,6.03
2019-02-08T10:02:20.721Z,10.73
2019-02-08T10:05:24.648Z,12.87
2019-02-08T10:08:07.379Z,8.37
2019-02-08T10:10:53.035Z,8.90
2019-02-08T10:14:04.191Z,15.00
2019-02-08T10:17:10.989Z,6.33
2019-02-08T10:20:33.578Z,9.43
2019-02-08T10:23:39.225Z,11.33
2019-02-08T10:26:20.138Z,10.30
2019-02-08T10:29:16.914Z,9.67
2019-02-08T10:32:17.588Z,8.77
2019-02-08T10:35:13.256Z,7.00
2019-02-08T10:38:15.610Z,8.07
2019-02-08T10:40:58.054Z,7.77
2019-02-08T10:43:44.357Z,12.30
2019-02-08T10:46:54.344Z,8.77
2019-02-08T10:49:57.034Z,15.37
2019-02-08T10:52:48.630Z,13.27
2019-02-08T10:55:54.084Z,13.77
2019-02-08T10:59:04.224Z,7.70
2019-02-08T11:02:15.947Z,9.00
2019-02-08T11:05:11.609Z,11.73
2019-02-08T11:08:21.593Z,8.97
2019-02-08T11:11:01.097Z,9.97
2019-02-08T11:13:51.202Z,8.23
2019-02-08T11:17:05.238Z,8.67
2019-02-08T11:19:37.805Z,8.17
2019-02-08T11:22:11.470Z,9.90
2019-02-08T11:24:45.143Z,8.87
2019-02-08T11:27:19.190Z,7.90
2019-02-08T11:29:53.024Z,8.43
2019-02-08T11:32:42.499Z,9.70
2019-02-08T11:35:02.149Z,6.70
2019-02-08T11:37:35.943Z,5.17
2019-02-08T11:40:21.427Z,4.90
2019-02-08T11:42:55.190Z,3.40
2019-02-08T11:45:32.734Z,5.67
2019-02-08T11:48:06.481Z,4.70
2019-02-08T11:50:40.167Z,7.97
2019-02-08T11:53:13.920Z,7.97
2019-02-08T11:55:59.659Z,4.07
2019-02-08T11:58:33.416Z,4.87
2019-02-08T12:01:07.178Z,5.80
2019-02-08T12:03:56.645Z,4.97
2019-02-08T12:06:30.292Z,4.23
2019-02-08T12:09:07.013Z,4.73
2019-02-08T12:11:40.679Z,5.37
2019-02-08T12:14:14.431Z,8.90
2019-02-08T12:16:51.139Z,8.03
2019-02-08T12:19:24.851Z,5.63
2019-02-08T12:21:58.569Z,6.67
2019-02-08T12:24:32.300Z,7.40
2019-02-08T12:27:06.127Z,7.47
2019-02-08T12:29:39.863Z,7.40
2019-02-08T12:32:13.564Z,8.13
2019-02-08T12:34:47.224Z,6.10
2019-02-08T12:37:20.920Z,5.30
2019-02-08T12:42:56.070Z,8.27
2019-02-08T12:45:32.762Z,6.10
2019-02-08T12:48:06.515Z,8.53
2019-02-08T12:50:40.235Z,7.17
2019-02-08T12:53:21.243Z,7.07
2019-02-08T12:55:54.898Z,8.53
2019-02-08T12:58:28.523Z,6.90
2019-02-08T13:01:02.282Z,5.27
2019-02-08T13:03:35.928Z,7.17
2019-02-08T13:06:09.853Z,8.23
2019-02-08T13:08:55.515Z,5.33
2019-02-08T13:11:29.247Z,4.80
2019-02-08T13:14:09.016Z,9.17
2019-02-08T13:16:42.667Z,3.63
2019-02-08T13:19:31.372Z,6.20
2019-02-08T13:22:05.287Z,5.77
2019-02-08T13:24:39.035Z,7.17
2019-02-08T13:27:12.724Z,6.50
2019-02-08T13:29:46.384Z,7.10
2019-02-08T13:32:20.068Z,8.20
2019-02-08T13:35:06.370Z,7.17
2019-02-08T13:37:40.131Z,5.90
2019-02-08T13:40:24.880Z,5.77
2019-02-08T13:42:58.612Z,7.03
2019-02-08T13:45:32.375Z,8.37
2019-02-08T13:48:06.342Z,7.60
2019-02-08T13:50:40.076Z,7.60
2019-02-08T13:53:13.741Z,8.23
2019-02-08T13:55:48.714Z,13.27
2019-02-08T13:58:22.544Z,5.77
2019-02-08T14:00:56.339Z,5.00
2019-02-08T14:03:29.918Z,4.20
2019-02-08T14:06:05.839Z,4.60
2019-02-08T14:08:39.610Z,6.57
2019-02-08T14:11:13.308Z,7.37
2019-02-08T14:13:47.012Z,4.13
2019-02-08T14:16:20.958Z,8.47
2019-02-08T14:18:54.706Z,5.43
2019-02-08T14:21:28.399Z,6.30
2019-02-08T14:24:02.134Z,7.63
2019-02-08T14:26:38.802Z,6.37
2019-02-08T14:29:12.491Z,5.50
2019-02-08T14:31:58.279Z,5.40
2019-02-08T14:34:32.033Z,5.77
2019-02-08T14:37:05.856Z,6.00
2019-02-08T14:39:39.612Z,4.87
2019-02-08T14:42:13.368Z,2.93
2019-02-08T14:44:47.116Z,3.93
2019-02-08T14:47:23.767Z,4.53
2019-02-08T14:49:57.390Z,3.77
2019-02-08T14:52:31.119Z,4.90
2019-02-08T14:55:20.305Z,4.90
2019-02-08T14:57:56.987Z,7.03
2019-02-08T15:00:30.750Z,4.00
2019-02-08T15:03:04.879Z,4.40
2019-02-08T15:05:38.597Z,2.83
2019-02-08T15:08:12.180Z,4.77
2019-02-08T15:10:51.221Z,4.03
2019-02-08T15:13:24.879Z,5.33
2019-02-08T15:15:58.579Z,5.53
2019-02-08T15:18:32.549Z,6.03
2019-02-08T15:21:06.169Z,4.60
2019-02-08T15:23:39.773Z,5.47
2019-02-08T15:26:13.435Z,5.47
2019-02-08T15:28:47.198Z,2.97
2019-02-08T15:31:20.855Z,6.43
2019-02-08T15:33:57.601Z,4.40
2019-02-08T15:36:31.322Z,6.27
2019-02-08T15:39:08.006Z,4.63
2019-02-08T15:41:41.735Z,5.93
2019-02-08T15:44:15.480Z,4.70
2019-02-08T15:46:49.072Z,5.70
2019-02-08T15:49:30.545Z,8.23
2019-02-08T15:52:04.296Z,6.90
2019-02-08T15:54:38.090Z,6.63
2019-02-08T15:57:11.776Z,3.43
2019-02-08T15:59:49.262Z,5.03
2019-02-08T16:02:23.342Z,3.33
2019-02-08T16:04:57.014Z,7.10
2019-02-08T16:07:30.830Z,4.33
2019-02-08T16:10:07.458Z,7.00
2019-02-08T16:12:41.182Z,4.07
2019-02-08T16:15:26.755Z,4.83
2019-02-08T16:18:00.483Z,5.53
2019-02-08T16:20:34.240Z,8.43
2019-02-08T16:23:11.660Z,6.83
2019-02-08T16:25:45.346Z,9.37
2019-02-08T16:28:28.161Z,6.13
2019-02-08T16:31:01.919Z,6.50
2019-02-08T16:33:35.518Z,5.67
2019-02-08T16:36:09.640Z,4.33
2019-02-08T16:38:43.358Z,4.43
2019-02-08T16:41:17.044Z,3.63
2019-02-08T16:43:51.169Z,2.63
2019-02-08T16:46:24.979Z,6.67
2019-02-08T16:48:58.601Z,4.33
2019-02-08T16:51:32.259Z,3.67
2019-02-08T16:54:06.225Z,6.10
2019-02-08T16:56:39.949Z,3.80
2019-02-08T16:59:31.755Z,4.20
2019-02-08T17:02:05.894Z,5.87
2019-02-08T17:04:39.662Z,3.70
2019-02-08T17:07:14.433Z,4.50
2019-02-08T17:09:48.101Z,4.70
2019-02-08T17:12:21.793Z,4.77
2019-02-08T17:14:55.384Z,4.73
2019-02-08T17:17:32.055Z,3.87
2019-02-08T17:20:11.672Z,7.40
2019-02-08T17:22:45.732Z,7.40
2019-02-08T17:25:25.711Z,4.00
2019-02-08T17:27:59.791Z,4.83
2019-02-08T17:30:33.704Z,6.63
2019-02-08T17:33:13.816Z,6.33
2019-02-08T17:35:54.331Z,8.23
2019-02-08T17:38:32.703Z,4.87
2019-02-08T17:41:16.492Z,6.97
2019-02-08T17:43:50.175Z,5.27
2019-02-08T17:46:27.545Z,4.43
2019-02-08T17:49:03.205Z,6.40
2019-02-08T17:51:37.028Z,6.80
2019-02-08T17:54:10.727Z,4.73
2019-02-08T17:56:44.340Z,5.67
2019-02-08T17:59:18.404Z,6.13
2019-02-08T18:01:52.145Z,11.13
2019-02-08T18:04:25.822Z,6.60
2019-02-08T18:07:06.900Z,7.87
2019-02-08T18:09:51.203Z,4.23
2019-02-08T18:12:32.127Z,6.50
2019-02-08T18:15:00.185Z,7.60
2019-02-08T18:17:33.721Z,4.80
2019-02-08T18:20:11.387Z,4.73
2019-02-08T18:22:45.008Z,6.97
2019-02-08T18:25:21.427Z,5.90
2019-02-08T18:27:55.088Z,5.07
2019-02-08T18:30:32.433Z,10.23
2019-02-08T18:33:06.252Z,7.70
2019-02-08T18:35:44.703Z,7.50
2019-02-08T18:38:18.361Z,7.27
2019-02-08T18:40:52.125Z,5.17
2019-02-08T18:43:25.783Z,4.57
2019-02-08T18:46:03.279Z,5.97
2019-02-08T18:48:36.910Z,8.53
2019-02-08T18:51:23.578Z,5.97
2019-02-08T18:53:57.524Z,7.43
2019-02-08T18:56:32.131Z,6.10
2019-02-08T18:59:05.888Z,9.10
2019-02-08T19:01:39.639Z,7.13
2019-02-08T19:04:18.426Z,15.17
2019-02-08T19:06:51.989Z,8.27
2019-02-08T19:09:28.357Z,10.80
2019-02-08T19:12:01.950Z,7.67
2019-02-08T19:14:35.572Z,10.60
2019-02-08T19:17:09.263Z,6.23
2019-02-08T19:19:43.015Z,5.77
2019-02-08T19:22:16.700Z,9.43
2019-02-08T19:24:52.247Z,5.53
2019-02-08T19:27:25.871Z,7.27
2019-02-08T19:30:21.179Z,7.20
2019-02-08T19:32:55.288Z,6.23
2019-02-08T19:35:32.958Z,7.00
2019-02-08T19:38:08.106Z,5.83
2019-02-08T19:40:46.596Z,10.23
2019-02-08T19:43:20.392Z,5.67
2019-02-08T19:45:54.028Z,5.77
2019-02-08T19:48:27.720Z,8.33
2019-02-08T19:51:01.784Z,6.00
2019-02-08T19:53:39.212Z,6.87
2019-02-08T19:56:12.898Z,7.83
2019-02-08T19:58:46.586Z,4.90
2019-02-08T20:01:20.170Z,6.90
2019-02-08T20:03:53.836Z,7.40
2019-02-08T20:06:27.419Z,6.77
2019-02-08T20:09:01.243Z,4.33
2019-02-08T20:11:35.016Z,6.03
2019-02-08T20:14:08.761Z,3.83
2019-02-08T20:16:42.432Z,5.63
2019-02-08T20:19:22.374Z,7.40
2019-02-08T20:21:56.126Z,3.77
2019-02-08T20:24:29.877Z,5.67
2019-02-08T20:27:03.603Z,3.93
2019-02-08T20:29:37.286Z,6.67
2019-02-08T20:32:11.001Z,5.30
2019-02-08T20:34:44.751Z,3.53
2019-02-08T20:37:18.414Z,8.53
2019-02-08T20:39:52.203Z,4.37
2019-02-08T20:42:57.765Z,4.23
2019-02-08T20:45:35.776Z,6.83
2019-02-08T20:48:18.083Z,4.70
2019-02-08T20:50:51.843Z,4.27
2019-02-08T20:53:26.485Z,3.80
2019-02-08T20:56:00.233Z,4.17
2019-02-08T20:58:34.771Z,5.23
2019-02-08T21:01:08.541Z,2.53
2019-02-08T21:03:48.434Z,4.67
2019-02-08T21:06:22.554Z,4.10
2019-02-08T21:08:56.475Z,4.50
2019-02-08T21:11:37.272Z,4.53
2019-02-08T21:14:11.135Z,4.20
2019-02-08T21:16:44.724Z,3.93
2019-02-08T21:19:18.333Z,2.87
2019-02-08T21:22:00.902Z,2.73
2019-02-08T21:24:34.511Z,3.97
2019-02-08T21:27:08.250Z,3.30
2019-02-08T21:29:41.870Z,3.80
2019-02-08T21:32:18.597Z,6.70
2019-02-08T21:34:52.218Z,2.20
2019-02-08T21:37:25.808Z,4.13
2019-02-08T21:39:59.482Z,5.47
2019-02-08T21:42:36.303Z,3.73
2019-02-08T21:45:13.232Z,3.40
2019-02-08T21:47:53.234Z,4.47
2019-02-08T21:50:27.692Z,2.37
2019-02-08T21:53:01.452Z,4.10
2019-02-08T21:55:35.369Z,5.70
2019-02-08T21:58:12.111Z,2.63
2019-02-08T22:00:45.834Z,5.20
2019-02-08T22:03:19.524Z,4.00
2019-02-08T22:05:59.270Z,8.30
2019-02-08T22:08:44.991Z,3.93
2019-02-08T22:11:18.578Z,4.03
2019-02-08T22:13:52.262Z,2.53
2019-02-08T22:16:25.936Z,3.57
2019-02-08T22:18:59.676Z,5.30
2019-02-08T22:21:33.404Z,5.40
2019-02-08T22:24:07.161Z,6.80
2019-02-08T22:26:40.844Z,5.27
2019-02-08T22:29:14.537Z,4.93
2019-02-08T22:31:51.340Z,1.83
2019-02-08T22:34:24.974Z,1.83
2019-02-08T22:36:58.628Z,3.80
2019-02-08T22:39:32.316Z,5.17
2019-02-08T22:42:05.959Z,4.70
2019-02-08T22:44:54.722Z,4.70
2019-02-08T22:47:28.477Z,4.10
2019-02-08T22:50:14.379Z,7.83
2019-02-08T22:52:47.989Z,4.60
2019-02-08T22:55:27.077Z,9.00
2019-02-08T22:58:00.925Z,5.87
2019-02-08T23:00:39.220Z,3.73
2019-02-08T23:03:16.909Z,5.43
2019-02-08T23:05:50.565Z,2.40
2019-02-08T23:08:24.340Z,3.73
2019-02-08T23:10:58.593Z,3.70
2019-02-08T23:13:32.659Z,3.10
2019-02-08T23:16:18.316Z,8.20
2019-02-08T23:18:51.992Z,1.90
2019-02-08T23:21:34.993Z,1.90
2019-02-08T23:24:09.047Z,5.90
2019-02-08T23:26:58.657Z,3.03
2019-02-08T23:29:32.344Z,2.40
2019-02-08T23:32:07.539Z,3.30
2019-02-08T23:34:41.291Z,4.10
2019-02-08T23:37:26.078Z,3.67
2019-02-08T23:40:07.263Z,4.07
2019-02-08T23:42:43.003Z,3.37
2019-02-08T23:45:20.651Z,3.43
2019-02-08T23:47:54.655Z,4.40
2019-02-08T23:50:28.446Z,4.57
2019-02-08T23:53:06.263Z,3.30
2019-02-08T23:55:40.019Z,3.77
2019-02-08T23:58:14.643Z,4.73
